Time;durP1;ratioP1;P1;durP2;ratioP2;P2;SDS_P1;SDS_P2;PMS_P1;PMS_P2;Temp;Humidity;BMP_temperature;BMP_pressure;BME280_temperature;BME280_humidity;BME280_pressure;Samples;Min_cycle;Max_cycle;Signal;HPM_P1;HPM_P2
2022/09/03 00:06:20;;;;;;;2.97;0.60;;;17.20;99.90;;;;;;12329762;28;20046;-79
2022/09/03 00:12:27;;;;;;;1.98;0.55;;;17.20;99.90;;;;;;12339131;28;20043;-79
2022/09/03 00:18:33;;;;;;;5.43;0.57;;;17.10;99.90;;;;;;12343303;28;20106;-80
2022/09/03 00:24:39;;;;;;;3.90;0.50;;;17.00;99.90;;;;;;12346783;28;20440;-79
2022/09/03 00:30:44;;;;;;;1.55;0.40;;;17.00;99.90;;;;;;12345237;28;20533;-79
2022/09/03 00:36:46;;;;;;;1.42;0.45;;;17.00;99.90;;;;;;12344935;28;20055;-79
2022/09/03 00:43:08;;;;;;;1.45;0.50;;;17.00;99.90;;;;;;12337662;28;20138;-80
2022/09/03 00:49:13;;;;;;;2.13;0.50;;;16.80;99.90;;;;;;12337586;28;20570;-80
2022/09/03 00:55:54;;;;;;;0.88;0.60;;;16.80;99.90;;;;;;12340385;28;20097;-79
2022/09/03 01:02:01;;;;;;;3.47;0.70;;;16.70;99.90;;;;;;12361269;28;20138;-79
2022/09/03 01:08:35;;;;;;;2.78;0.50;;;16.70;99.90;;;;;;12347544;28;20437;-79
2022/09/03 01:14:43;;;;;;;4.60;0.70;;;16.80;99.90;;;;;;12345176;28;20088;-79
2022/09/03 01:21:23;;;;;;;3.10;0.68;;;16.80;99.90;;;;;;12361015;28;20646;-80
2022/09/03 01:27:57;;;;;;;1.42;0.60;;;16.70;99.90;;;;;;12346189;28;20137;-79
2022/09/03 01:34:08;;;;;;;2.88;0.60;;;16.60;99.90;;;;;;12344970;28;20047;-79
2022/09/03 01:40:28;;;;;;;2.65;0.60;;;16.50;99.90;;;;;;12345416;28;20101;-79
2022/09/03 01:46:37;;;;;;;1.98;0.63;;;16.40;99.90;;;;;;12331223;28;20051;-79
2022/09/03 01:52:45;;;;;;;1.17;0.43;;;16.40;99.90;;;;;;12336973;28;20426;-79
2022/09/03 01:59:01;;;;;;;4.10;0.73;;;16.40;99.90;;;;;;12325951;28;20069;-79
2022/09/03 02:05:14;;;;;;;2.58;0.40;;;16.40;99.90;;;;;;12318594;28;20079;-79
2022/09/03 02:11:16;;;;;;;1.40;0.60;;;16.40;99.90;;;;;;12321022;28;20107;-79
2022/09/03 02:17:18;;;;;;;3.80;0.40;;;16.30;99.90;;;;;;12344831;28;20058;-79
2022/09/03 02:23:21;;;;;;;1.60;0.50;;;16.30;99.90;;;;;;12332294;28;21922;-79
2022/09/03 02:29:29;;;;;;;2.17;0.50;;;16.20;99.90;;;;;;12342894;28;20090;-79
2022/09/03 02:35:31;;;;;;;1.25;0.60;;;16.20;99.90;;;;;;12342296;28;20074;-79
2022/09/03 02:41:33;;;;;;;1.02;0.47;;;16.00;99.90;;;;;;12344428;28;20133;-79
2022/09/03 02:47:39;;;;;;;2.17;0.50;;;16.00;99.90;;;;;;12337898;28;20423;-79
2022/09/03 02:53:42;;;;;;;3.17;0.82;;;16.00;99.90;;;;;;12345881;28;20076;-79
2022/09/03 02:59:44;;;;;;;1.58;0.45;;;15.80;99.90;;;;;;12345102;28;20043;-79
2022/09/03 03:05:50;;;;;;;0.70;0.45;;;15.60;99.90;;;;;;12332443;28;20038;-79
2022/09/03 03:11:54;;;;;;;1.55;0.80;;;15.70;99.90;;;;;;12336805;28;20047;-79
2022/09/03 03:17:56;;;;;;;1.63;0.52;;;15.70;99.90;;;;;;12322758;28;20426;-79
2022/09/03 03:24:00;;;;;;;2.60;0.70;;;15.70;99.90;;;;;;12312425;28;20144;-79
2022/09/03 03:30:02;;;;;;;1.55;0.70;;;15.60;99.90;;;;;;12324677;28;20047;-80
2022/09/03 03:36:13;;;;;;;4.15;0.60;;;15.70;99.90;;;;;;12331401;28;20046;-79
2022/09/03 03:42:15;;;;;;;2.15;0.50;;;15.60;99.90;;;;;;12376778;28;20043;-80
2022/09/03 03:48:17;;;;;;;1.83;0.70;;;15.60;99.90;;;;;;12381302;28;20042;-80
2022/09/03 03:54:18;;;;;;;2.35;0.60;;;15.60;99.90;;;;;;12380737;28;20039;-80
2022/09/03 04:00:20;;;;;;;1.90;0.70;;;15.60;99.90;;;;;;12350922;28;20055;-80
2022/09/03 04:06:25;;;;;;;1.80;0.60;;;15.40;99.90;;;;;;12323160;28;20106;-79
2022/09/03 04:12:27;;;;;;;2.65;1.13;;;15.30;99.90;;;;;;12338558;28;20558;-80
2022/09/03 04:18:30;;;;;;;1.35;0.52;;;15.20;99.90;;;;;;12319618;28;20106;-79
2022/09/03 04:24:32;;;;;;;1.65;0.60;;;15.30;99.90;;;;;;12342135;28;20173;-79
2022/09/03 04:30:33;;;;;;;1.85;0.65;;;15.20;99.90;;;;;;12345758;28;20552;-79
2022/09/03 04:36:36;;;;;;;4.50;0.70;;;15.30;99.90;;;;;;12343759;28;20046;-80
2022/09/03 04:42:38;;;;;;;1.70;0.60;;;15.20;99.90;;;;;;12336412;28;20523;-79
2022/09/03 04:48:40;;;;;;;2.83;0.80;;;15.10;99.90;;;;;;12339731;28;20099;-79
2022/09/03 04:54:42;;;;;;;1.35;0.63;;;15.10;99.90;;;;;;12324248;28;20157;-79
2022/09/03 05:00:44;;;;;;;5.53;0.90;;;14.90;99.90;;;;;;12337566;28;20043;-80
2022/09/03 05:06:46;;;;;;;5.35;0.68;;;14.90;99.90;;;;;;12344663;28;20135;-79
2022/09/03 05:12:57;;;;;;;5.05;0.93;;;14.90;99.90;;;;;;12346619;28;20101;-79
2022/09/03 05:18:59;;;;;;;2.05;0.80;;;14.90;99.90;;;;;;12320277;28;20094;-79
2022/09/03 05:25:02;;;;;;;1.02;0.65;;;14.90;99.90;;;;;;12332559;28;20054;-79
2022/09/03 05:31:10;;;;;;;5.22;0.80;;;15.00;99.90;;;;;;12339496;28;20100;-80
2022/09/03 05:37:12;;;;;;;2.45;0.70;;;15.00;99.90;;;;;;12356647;28;20053;-79
2022/09/03 05:43:16;;;;;;;2.00;0.70;;;14.90;99.90;;;;;;12336796;28;20130;-79
2022/09/03 05:49:17;;;;;;;3.45;0.85;;;15.00;99.90;;;;;;12336133;28;20049;-79
2022/09/03 05:55:19;;;;;;;1.42;0.57;;;15.00;99.90;;;;;;12337519;28;20047;-79
2022/09/03 06:01:28;;;;;;;3.70;0.90;;;15.20;99.90;;;;;;12337389;28;20038;-79
2022/09/03 06:07:32;;;;;;;1.17;0.60;;;15.30;99.90;;;;;;12337475;28;20046;-79
2022/09/03 06:13:34;;;;;;;2.13;0.80;;;15.50;99.90;;;;;;12339581;28;20042;-79
2022/09/03 06:19:36;;;;;;;1.98;0.70;;;15.50;99.90;;;;;;12331777;28;20051;-79
2022/09/03 06:25:38;;;;;;;3.22;0.73;;;15.70;99.90;;;;;;12329016;28;20042;-80
2022/09/03 06:31:42;;;;;;;1.25;0.63;;;15.90;99.90;;;;;;12331505;28;20066;-79
2022/09/03 06:37:44;;;;;;;2.22;0.70;;;16.00;99.90;;;;;;12338181;28;20109;-79
2022/09/03 06:43:48;;;;;;;2.92;1.35;;;16.10;99.90;;;;;;12335327;28;20049;-79
2022/09/03 06:49:49;;;;;;;2.17;0.68;;;16.30;99.90;;;;;;12339999;28;20506;-79
2022/09/03 06:55:53;;;;;;;1.75;0.75;;;16.40;99.90;;;;;;12329924;28;20101;-79
2022/09/03 07:01:56;;;;;;;1.77;0.90;;;16.60;99.90;;;;;;12330563;28;20043;-78
2022/09/03 07:07:58;;;;;;;1.65;0.60;;;16.80;99.90;;;;;;12337394;28;20058;-79
2022/09/03 07:14:02;;;;;;;1.77;0.90;;;16.90;99.90;;;;;;12336707;28;20051;-79
2022/09/03 07:20:04;;;;;;;1.98;0.70;;;17.00;99.90;;;;;;12353654;28;20078;-79
2022/09/03 07:26:09;;;;;;;3.90;0.80;;;17.10;99.90;;;;;;12341628;28;20054;-78
2022/09/03 07:32:11;;;;;;;3.35;0.80;;;17.30;99.90;;;;;;12338572;28;20513;-79
2022/09/03 07:38:22;;;;;;;2.65;1.00;;;17.40;99.90;;;;;;12330881;28;20047;-79
2022/09/03 07:44:24;;;;;;;2.85;0.95;;;17.60;99.90;;;;;;12338010;28;20054;-79
2022/09/03 07:50:26;;;;;;;2.67;0.98;;;17.70;99.90;;;;;;12337725;28;20582;-78
2022/09/03 07:56:33;;;;;;;1.00;0.70;;;17.90;99.90;;;;;;12319441;28;20089;-78
2022/09/03 08:02:35;;;;;;;1.88;0.80;;;18.10;99.90;;;;;;12342698;28;20117;-79
2022/09/03 08:08:39;;;;;;;1.95;0.90;;;18.40;99.90;;;;;;12334713;28;20073;-79
2022/09/03 08:14:41;;;;;;;2.63;0.60;;;18.70;99.90;;;;;;12346367;28;20055;-78
2022/09/03 08:20:42;;;;;;;4.07;0.95;;;18.90;99.90;;;;;;12345228;28;20066;-78
2022/09/03 08:26:44;;;;;;;3.45;0.80;;;19.10;99.90;;;;;;12338313;28;20181;-78
2022/09/03 08:32:54;;;;;;;2.50;0.80;;;19.20;99.90;;;;;;12327433;28;20051;-80
2022/09/03 08:39:02;;;;;;;6.13;0.90;;;19.30;99.90;;;;;;12349582;28;20050;-79
2022/09/03 08:45:11;;;;;;;2.80;0.90;;;19.60;99.90;;;;;;12329067;28;20522;-79
2022/09/03 08:51:16;;;;;;;2.80;0.73;;;19.70;99.90;;;;;;12341058;28;20135;-78
2022/09/03 08:57:20;;;;;;;2.88;0.90;;;19.80;99.90;;;;;;12346817;28;20478;-80
2022/09/03 09:03:44;;;;;;;;;;;20.10;99.90;;;;;;12345350;28;20051;-79
2022/09/03 09:09:59;;;;;;;2.15;0.80;;;20.40;99.90;;;;;;12338679;28;19922;-80
2022/09/03 09:16:03;;;;;;;1.95;0.75;;;20.50;99.90;;;;;;12328533;28;20388;-80
2022/09/03 09:22:32;;;;;;;3.40;0.70;;;20.60;99.90;;;;;;12347607;28;20059;-79
2022/09/03 09:28:36;;;;;;;3.95;0.70;;;20.70;99.90;;;;;;12344854;28;20067;-79
2022/09/03 09:34:40;;;;;;;3.72;0.80;;;20.90;99.90;;;;;;12327635;28;20519;-79
2022/09/03 09:40:44;;;;;;;3.30;0.70;;;20.90;99.90;;;;;;12340385;28;20062;-80
2022/09/03 09:46:47;;;;;;;1.95;0.73;;;21.10;99.90;;;;;;12339440;28;20043;-80
2022/09/03 09:53:07;;;;;;;3.10;0.68;;;21.20;99.90;;;;;;12335816;28;20169;-79
2022/09/03 09:59:10;;;;;;;1.45;0.80;;;21.40;99.90;;;;;;12324712;28;20551;-80
2022/09/03 10:05:36;;;;;;;3.45;0.90;;;21.60;99.90;;;;;;12328197;28;20177;-79
2022/09/03 10:18:39;;;;;;;2.53;0.60;;;21.70;99.90;;;;;;5671277;23;20038;-79
2022/09/03 10:24:58;;;;;;;3.10;0.80;;;22.20;99.90;;;;;;12374263;28;20133;-79
2022/09/03 10:31:17;;;;;;;3.28;0.88;;;22.30;99.90;;;;;;12371564;28;20480;-79
2022/09/03 10:37:59;;;;;;;2.55;0.95;;;22.50;99.90;;;;;;12485624;23;20065;-38
2022/09/03 10:44:34;;;;;;;5.05;0.90;;;22.60;99.90;;;;;;12462920;28;20546;-38
2022/09/03 10:50:50;;;;;;;2.10;0.77;;;23.00;99.90;;;;;;12477636;28;20053;-39
2022/09/03 10:57:25;;;;;;;2.95;0.80;;;23.00;99.90;;;;;;12471721;28;20086;-38
2022/09/03 11:03:44;;;;;;;3.33;0.80;;;22.80;99.90;;;;;;12475217;28;20144;-38
2022/09/03 11:09:51;;;;;;;4.07;0.80;;;23.10;99.90;;;;;;12478554;28;20041;-40
2022/09/03 11:15:58;;;;;;;1.45;0.60;;;23.40;99.90;;;;;;12478317;28;20053;-39
2022/09/03 11:22:01;;;;;;;2.72;0.60;;;23.10;99.90;;;;;;12474371;28;20617;-38
2022/09/03 11:28:25;;;;;;;4.85;0.70;;;23.40;99.90;;;;;;12473423;28;20556;-39
2022/09/03 11:34:28;;;;;;;;;;;23.70;99.90;;;;;;12454318;28;20137;-40
2022/09/03 11:40:56;;;;;;;2.47;0.90;;;24.10;99.90;;;;;;12475149;28;19921;-40
2022/09/03 11:46:58;;;;;;;2.22;0.90;;;23.90;99.90;;;;;;12450043;28;20042;-40
2022/09/03 11:53:09;;;;;;;2.55;0.60;;;23.80;99.90;;;;;;12477410;28;20054;-39
2022/09/03 11:59:14;;;;;;;1.67;0.82;;;24.20;99.90;;;;;;12482826;28;20183;-38
2022/09/03 12:05:50;;;;;;;1.55;0.70;;;24.70;99.90;;;;;;12480978;28;20857;-40
2022/09/03 12:12:04;;;;;;;13.32;1.45;;;24.80;99.90;;;;;;12452476;28;20050;-42
2022/09/03 12:18:20;;;;;;;1.85;0.65;;;24.90;99.90;;;;;;12474598;28;20641;-39
2022/09/03 12:24:30;;;;;;;1.65;0.77;;;24.60;99.90;;;;;;12476231;28;20179;-39
2022/09/03 12:30:37;;;;;;;5.25;0.90;;;24.80;99.90;;;;;;12481965;28;20068;-38
2022/09/03 12:36:45;;;;;;;2.50;0.55;;;24.60;99.90;;;;;;12473965;28;20057;-40
2022/09/03 12:42:47;;;;;;;5.85;1.10;;;24.90;99.90;;;;;;12474159;28;20933;-39
2022/09/03 12:49:06;;;;;;;1.90;0.80;;;25.30;99.90;;;;;;12487411;28;20061;-38
2022/09/03 12:55:46;;;;;;;3.25;0.70;;;25.30;99.90;;;;;;12486443;28;20037;-38
2022/09/03 13:01:51;;;;;;;3.17;1.00;;;25.00;99.90;;;;;;12488488;28;20049;-39
2022/09/03 13:07:59;;;;;;;1.45;0.63;;;25.00;99.90;;;;;;12481932;28;20054;-40
2022/09/03 13:14:05;;;;;;;4.25;0.90;;;25.20;99.90;;;;;;12480625;28;20259;-39
2022/09/03 13:20:32;;;;;;;4.45;0.80;;;24.90;99.90;;;;;;12489887;28;20041;-38
2022/09/03 13:27:04;;;;;;;2.40;0.70;;;24.70;99.90;;;;;;12427467;28;20072;-39
2022/09/03 13:33:18;;;;;;;1.67;0.82;;;24.50;99.90;;;;;;12488994;28;20136;-39
2022/09/03 13:39:42;;;;;;;2.33;0.90;;;24.20;99.90;;;;;;12489037;28;20049;-39
2022/09/03 13:45:53;;;;;;;3.42;0.77;;;24.00;99.90;;;;;;12471658;28;20564;-38
2022/09/03 13:52:02;;;;;;;2.55;0.70;;;23.90;99.90;;;;;;12476661;28;20041;-38
2022/09/03 13:58:40;;;;;;;3.47;0.68;;;24.10;99.90;;;;;;12489386;28;20041;-40
2022/09/03 14:04:57;;;;;;;7.47;0.73;;;24.00;99.90;;;;;;12487002;28;20527;-39
2022/09/03 14:11:26;;;;;;;2.25;0.73;;;24.10;99.90;;;;;;12485368;28;20045;-40
2022/09/03 14:17:40;;;;;;;4.82;1.08;;;23.90;99.90;;;;;;12468620;28;20139;-39
2022/09/03 14:24:05;;;;;;;2.22;0.95;;;23.60;99.90;;;;;;12484390;28;20706;-39
2022/09/03 14:30:42;;;;;;;2.22;0.80;;;23.50;99.90;;;;;;12476489;28;20046;-39
2022/09/03 14:37:09;;;;;;;2.65;0.77;;;23.70;99.90;;;;;;12446397;28;20049;-39
2022/09/03 14:43:53;;;;;;;3.30;0.80;;;23.70;99.90;;;;;;12477768;28;20124;-39
2022/09/03 14:50:02;;;;;;;4.43;0.90;;;24.30;99.90;;;;;;12460467;28;20397;-39
2022/09/03 14:56:20;;;;;;;3.92;0.60;;;24.70;99.90;;;;;;12477121;28;20050;-39
2022/09/03 15:02:57;;;;;;;2.00;0.80;;;24.10;99.90;;;;;;12477627;28;20050;-41
2022/09/03 15:09:16;;;;;;;4.50;0.85;;;23.80;99.90;;;;;;12462486;28;20100;-39
2022/09/03 15:15:21;;;;;;;3.97;1.00;;;23.50;99.90;;;;;;12475754;28;20130;-39
2022/09/03 15:21:54;;;;;;;1.45;0.75;;;23.20;99.90;;;;;;12473013;28;20386;-41
2022/09/03 15:28:19;;;;;;;5.72;1.42;;;23.10;99.90;;;;;;12484914;28;20120;-39
2022/09/03 15:34:21;;;;;;;3.17;1.08;;;23.00;99.90;;;;;;12457918;28;20497;-39
2022/09/03 15:40:41;;;;;;;1.17;0.70;;;23.00;99.90;;;;;;12470254;28;20087;-39
2022/09/03 15:46:57;;;;;;;3.05;0.82;;;22.90;99.90;;;;;;12467479;28;20049;-39
2022/09/03 15:53:26;;;;;;;2.83;0.77;;;22.90;99.90;;;;;;12478237;28;20465;-39
2022/09/03 15:59:52;;;;;;;2.30;0.80;;;22.70;99.90;;;;;;12450157;28;20049;-40
2022/09/03 16:05:58;;;;;;;1.67;0.82;;;22.70;99.90;;;;;;12474322;28;20045;-39
2022/09/03 16:12:26;;;;;;;8.60;1.20;;;22.70;99.90;;;;;;12478437;28;20123;-39
2022/09/03 16:18:38;;;;;;;2.45;0.80;;;22.80;99.90;;;;;;12480890;28;20053;-40
2022/09/03 16:24:59;;;;;;;3.65;0.68;;;23.00;99.90;;;;;;12487684;28;20094;-39
2022/09/03 16:31:38;;;;;;;8.77;1.23;;;23.20;99.90;;;;;;12483818;28;20037;-39
2022/09/03 16:38:09;;;;;;;2.22;0.90;;;23.20;99.90;;;;;;12483276;28;20574;-40
2022/09/03 16:44:14;;;;;;;3.08;0.85;;;23.30;99.90;;;;;;12479659;28;20045;-39
2022/09/03 16:50:39;;;;;;;1.83;0.68;;;23.20;99.90;;;;;;12482742;28;20045;-39
2022/09/03 16:57:14;;;;;;;2.67;0.95;;;23.00;99.90;;;;;;12476458;28;20878;-39
2022/09/03 17:03:21;;;;;;;1.30;0.60;;;22.70;99.90;;;;;;12481643;28;20124;-38
2022/09/03 17:09:45;;;;;;;2.35;0.82;;;22.70;99.90;;;;;;12480584;28;20099;-39
2022/09/03 17:16:02;;;;;;;2.22;1.02;;;22.60;99.90;;;;;;12470123;28;20110;-39
2022/09/03 17:22:37;;;;;;;4.82;0.70;;;22.50;99.90;;;;;;12458471;28;20093;-40
2022/09/03 17:29:22;;;;;;;1.50;0.80;;;22.40;99.90;;;;;;12475235;28;20050;-39
2022/09/03 17:35:52;;;;;;;2.25;0.80;;;22.20;99.90;;;;;;12432594;28;20049;-39
2022/09/03 17:42:03;;;;;;;4.70;0.80;;;22.00;99.90;;;;;;12483539;28;20460;-39
2022/09/03 17:48:38;;;;;;;1.52;0.90;;;21.90;99.90;;;;;;12481153;28;20394;-39
2022/09/03 17:54:47;;;;;;;1.92;0.57;;;21.80;99.90;;;;;;12462822;28;20091;-39
2022/09/03 18:00:57;;;;;;;3.88;0.82;;;21.70;99.90;;;;;;12481375;28;20132;-39
2022/09/03 18:07:39;;;;;;;3.53;0.90;;;21.50;99.90;;;;;;12480954;28;20116;-39
2022/09/03 18:14:04;;;;;;;2.78;1.00;;;21.40;99.90;;;;;;12445549;28;20411;-39
2022/09/03 20:11:22;;;;;;;8.20;1.65;;;19.70;99.90;;;;;;12486489;28;20045;-40
2022/09/03 20:17:48;;;;;;;3.58;1.00;;;19.50;99.90;;;;;;12485899;28;20065;-39
2022/09/03 20:24:09;;;;;;;6.53;1.50;;;19.40;99.90;;;;;;12491228;28;20136;-39
2022/09/03 20:30:30;;;;;;;3.70;1.42;;;19.30;99.90;;;;;;12480927;28;20397;-40
2022/09/03 20:36:50;;;;;;;2.58;1.00;;;19.30;99.90;;;;;;12479899;28;20085;-39
2022/09/03 20:43:24;;;;;;;2.95;1.23;;;19.20;99.90;;;;;;12481676;28;20137;-38
2022/09/03 20:49:36;;;;;;;;;;;19.30;99.90;;;;;;12426317;28;20522;-39
2022/09/03 20:55:43;;;;;;;4.38;1.25;;;19.30;99.90;;;;;;12475744;28;20355;-39
2022/09/03 21:02:00;;;;;;;3.05;1.20;;;19.30;99.90;;;;;;12479327;28;20086;-39
2022/09/03 21:08:13;;;;;;;3.78;1.20;;;19.20;99.90;;;;;;12484161;28;20064;-39
2022/09/03 21:14:46;;;;;;;1.83;1.00;;;19.10;99.90;;;;;;12480262;28;20079;-39
2022/09/03 21:21:08;;;;;;;4.65;1.10;;;18.80;99.90;;;;;;12481032;28;20073;-39
2022/09/03 21:27:19;;;;;;;2.88;1.20;;;18.60;99.90;;;;;;12486330;28;20046;-38
2022/09/03 21:33:50;;;;;;;4.05;1.20;;;18.40;99.90;;;;;;12477726;28;20600;-39
2022/09/03 21:39:56;;;;;;;3.33;0.90;;;18.50;99.90;;;;;;12460961;28;20053;-39
2022/09/03 21:46:13;;;;;;;3.38;1.20;;;18.50;99.90;;;;;;12484754;28;20149;-40
2022/09/03 21:52:25;;;;;;;2.15;1.15;;;18.40;99.90;;;;;;12482266;28;20045;-38
2022/09/03 21:58:36;;;;;;;4.90;1.15;;;18.40;99.90;;;;;;12475889;28;20124;-38
2022/09/03 22:04:38;;;;;;;2.83;1.13;;;18.20;99.90;;;;;;12474440;28;20171;-39
2022/09/03 22:11:21;;;;;;;4.18;1.20;;;18.10;99.90;;;;;;12471708;28;20198;-39
2022/09/03 22:17:35;;;;;;;4.80;1.10;;;18.20;99.90;;;;;;12434433;28;20160;-39
2022/09/03 22:24:06;;;;;;;9.23;1.83;;;18.20;99.90;;;;;;12476699;28;20484;-39
2022/09/03 22:30:10;;;;;;;3.33;1.30;;;18.20;99.90;;;;;;12477773;28;20620;-39
2022/09/03 22:36:47;;;;;;;3.72;1.10;;;18.10;99.90;;;;;;12452271;28;20142;-38
2022/09/03 22:43:22;;;;;;;2.67;1.13;;;18.20;99.90;;;;;;12469036;28;20049;-39
2022/09/03 22:49:31;;;;;;;2.47;1.10;;;18.20;99.90;;;;;;12473986;28;20071;-39
2022/09/03 22:55:37;;;;;;;3.13;1.33;;;18.20;99.90;;;;;;12476787;28;20049;-38
2022/09/03 23:01:43;;;;;;;4.55;1.30;;;18.20;99.90;;;;;;12476545;28;20088;-38
2022/09/03 23:07:56;;;;;;;2.88;1.00;;;18.20;99.90;;;;;;12469433;28;20081;-39
2022/09/03 23:14:05;;;;;;;4.53;1.35;;;18.20;99.90;;;;;;12481446;28;20041;-39
2022/09/03 23:20:15;;;;;;;2.90;1.17;;;18.10;99.90;;;;;;12472124;28;20084;-39
2022/09/03 23:26:26;;;;;;;1.92;1.08;;;18.00;99.90;;;;;;12448370;28;20127;-38
2022/09/03 23:32:28;;;;;;;2.58;1.20;;;17.80;99.90;;;;;;12468745;28;20139;-39
2022/09/03 23:39:02;;;;;;;2.70;1.30;;;17.60;99.90;;;;;;12475802;28;20045;-39
2022/09/03 23:45:23;;;;;;;2.80;1.17;;;17.60;99.90;;;;;;12472926;28;20455;-39
2022/09/03 23:51:43;;;;;;;5.50;1.42;;;17.60;99.90;;;;;;12475601;28;20480;-39
2022/09/03 23:58:16;;;;;;;2.80;1.40;;;17.50;99.90;;;;;;12474428;28;20113;-40
